createdAt,value
2023-05-22T00:00:00.000Z,9.47
2023-05-22T00:15:00.000Z,9.66
2023-05-22T00:30:00.000Z,9.76
2023-05-22T00:45:00.000Z,9.67
2023-05-22T01:00:00.000Z,9.64
2023-05-22T01:15:00.000Z,9.41
2023-05-22T01:30:00.000Z,9.63
2023-05-22T01:45:00.000Z,9.49
2023-05-22T02:00:00.000Z,9.99
2023-05-22T02:15:00.000Z,9.8
2023-05-22T02:30:00.000Z,9.48
2023-05-22T02:45:00.000Z,9.99
2023-05-22T03:00:00.000Z,9.66
2023-05-22T03:15:00.000Z,9.84
2023-05-22T03:30:00.000Z,9.52
2023-05-22T03:45:00.000Z,9.4
2023-05-22T04:00:00.000Z,9.56
2023-05-22T04:15:00.000Z,9.81
2023-05-22T04:30:00.000Z,9.53
2023-05-22T04:45:00.000Z,9.23
2023-05-22T05:00:00.000Z,9.18
2023-05-22T05:15:00.000Z,9.12
2023-05-22T05:30:00.000Z,9.1
2023-05-22T05:45:00.000Z,9.18
2023-05-22T06:00:00.000Z,8.68
2023-05-22T06:15:00.000Z,8.73
2023-05-22T06:30:00.000Z,8.56
2023-05-22T06:45:00.000Z,7.62
2023-05-22T07:00:00.000Z,7.19
2023-05-22T07:15:00.000Z,7.09
2023-05-22T07:30:00.000Z,7.01
2023-05-22T07:45:00.000Z,6.92
2023-05-22T08:00:00.000Z,8.13
2023-05-22T08:15:00.000Z,6.64
2023-05-22T08:30:00.000Z,8.38
2023-05-22T08:45:00.000Z,7.12
2023-05-22T09:00:00.000Z,6.37
2023-05-22T09:15:00.000Z,7.32
2023-05-22T09:30:00.000Z,7.06
2023-05-22T09:45:00.000Z,7.03
2023-05-22T10:00:00.000Z,7.3
2023-05-22T10:15:00.000Z,7.58
2023-05-22T10:30:00.000Z,7.23
2023-05-22T10:45:00.000Z,7.14
2023-05-22T11:00:00.000Z,7.33
2023-05-22T11:15:00.000Z,6.78
2023-05-22T11:30:00.000Z,7.1
2023-05-22T11:45:00.000Z,7.01
2023-05-22T12:00:00.000Z,7.06
2023-05-22T12:15:00.000Z,7
2023-05-22T12:30:00.000Z,6.83
2023-05-22T12:45:00.000Z,7.03
2023-05-22T13:00:00.000Z,7.19
2023-05-22T13:15:00.000Z,7.12
2023-05-22T13:30:00.000Z,6.79
2023-05-22T13:45:00.000Z,7.12
2023-05-22T14:00:00.000Z,7.1
2023-05-22T14:15:00.000Z,6.89
2023-05-22T14:30:00.000Z,6.89
2023-05-22T14:45:00.000Z,6.62
2023-05-22T15:00:00.000Z,6.49
2023-05-22T15:15:00.000Z,6.44
2023-05-22T15:30:00.000Z,6.68
2023-05-22T15:45:00.000Z,7.09
2023-05-22T16:00:00.000Z,7.11
2023-05-22T16:15:00.000Z,7.23
2023-05-22T16:30:00.000Z,7.52
2023-05-22T16:45:00.000Z,7.34
2023-05-22T17:00:00.000Z,7.2
2023-05-22T17:15:00.000Z,7.58
2023-05-22T17:30:00.000Z,7.64
2023-05-22T17:45:00.000Z,8.47
2023-05-22T18:00:00.000Z,10
2023-05-22T18:15:00.000Z,11.87
2023-05-22T18:30:00.000Z,11.5
2023-05-22T18:45:00.000Z,11.57
2023-05-22T19:00:00.000Z,11.92
2023-05-22T19:15:00.000Z,10.77
2023-05-22T19:30:00.000Z,12.54
2023-05-22T19:45:00.000Z,13.76
2023-05-22T20:00:00.000Z,13.98
2023-05-22T20:15:00.000Z,14.54
2023-05-22T20:30:00.000Z,16.91
2023-05-22T20:45:00.000Z,14.19
2023-05-22T21:00:00.000Z,11.43
2023-05-22T21:15:00.000Z,10.67
2023-05-22T21:30:00.000Z,10.67
2023-05-22T21:45:00.000Z,10.57
2023-05-22T22:00:00.000Z,10.89
2023-05-22T22:15:00.000Z,11.34
2023-05-22T22:30:00.000Z,10.98
2023-05-22T22:45:00.000Z,11.07
2023-05-22T23:00:00.000Z,11.35
2023-05-22T23:15:00.000Z,11.66
2023-05-22T23:30:00.000Z,11.74
2023-05-22T23:45:00.000Z,11.71
